Weather at Patreksfjörður Airport

Public forecast

Using degrees Celsius for public forecast. Weather courtesy of forecast.io.

Closest aviation weather report (METAR) to Patreksfjörður Airport

Report is more than 2 hours old.

Closest report is Bildudalur Airport, 11.6 nm (21.5 km) ENE. Retrieved 2022/08/12 17:00 UTC (2 hours ago):

BIBD 121700Z 23009KT 190V280 9999 SCT020 BKN030 09/04 Q1010

Closest aviation forecast (TAF) to Patreksfjörður Airport

Closest forecast is Reykjavik Airport, 100.0 nm (185.2 km) SSE. Retrieved 2022/08/12 18:18 UTC (49 minutes ago):

TAF BIRK 121616Z 1218/1318 26010KT 9999 SCT015 BKN035 TX14/1314Z TN08/1305Z BECMG 1303/1305 15007KT